Notice: Undefined index: wuKey in /var/www/vhosts/manhaeghe.com/httpdocs/weather28/wuforecast/wualmanac.php on line 27
Welcome to our new website - Welkom op onze vernieuwde website - Bienvenue sur notre nouveau site web - Willkommen auf unserer neuen Website
Check our progress frequently. Prüfen Sie unsere Fortschritte regelmäßig. Consultez notre progression fréquemment. Komt u straks nog eens terug
Sneeuw/IJzel/Bevriezing van: 16-01-2021 12:05 tot: 23:59 waarschuwing voor: Sneeuw/IJzel/Bevriezing niveau: Geel info button


Webcam Wortegem - Petegem  Webcam Wortegem - Petegem


Onweer radar Meer informatie blitzortung!


waarschuwing voor winterse neerslag Meer informatie rain snow radar


Bezoek ook deze websites:

Template documentation
and downloads

And another site



METAR rapporten vliegvelden

   
EHVK - Volkel Rnlafb, Netherlands
Afstand tot: ZW 18 km
Gewijzigd: 16-01-2021 12:55
Bewolking  
Bewolking  
   Wind: ZZW 20.4 km/h
Wind: ZZW 20.4 km/h
Temperatuur: 2°C
Voelt als: -3°C
Dauwpunt: -3°C
Vochtigheid: 70%
Barometer: 1024 hPa
Bewolking: Bewolking
Zicht: meer dan 10 km
Bewolking: Bewolking 3900 ft
EHVK 161155Z AUTO 21011KT 170V240 9999 OVC039 02/M03 Q1024 BLU
EDLV - Niederrhein, Germany
Afstand tot: ZO 25 km
Gewijzigd: 16-01-2021 12:50
Grotendeels bewolkt  
Grotendeels bewolkt  
   Wind: ZW 14.8 km/h
Wind: ZW 14.8 km/h
Temperatuur: 2°C
Voelt als: -2°C
Dauwpunt: -3°C
Vochtigheid: 70%
Barometer: 1024 hPa
Bewolking: Grotendeels bewolkt
Zicht: meer dan 10 km
Bewolking: Grotendeels bewolkt 4200 ft
EDLV 161150Z 22008KT 9999 BKN042 02/M03 Q1024
EHDL - Deelen Rnlafb, Netherlands
Afstand tot: N 35 km
Gewijzigd: 16-01-2021 12:55
Bewolking  
Bewolking  
   Wind: ZZW 16.7 km/h
Wind: ZZW 16.7 km/h
Temperatuur: 2°C
Voelt als: -2°C
Dauwpunt: -3°C
Vochtigheid: 70%
Barometer: 1023 hPa
Bewolking: Bewolking
Zicht: meer dan 10 km
Bewolking: Bewolking 4000 ft
EHDL 161155Z AUTO 21009KT 140V260 9999 OVC040 02/M03 Q1023 BLU
EHEH - Eindhoven Rnlafb, Netherlands
Afstand tot: ZW 48 km
Gewijzigd: 16-01-2021 12:25
Bewolking  
Bewolking  
   Wind: ZZW 18.5 km/h
Wind: ZZW 18.5 km/h
Temperatuur: 2°C
Voelt als: -2°C
Dauwpunt: -3°C
Vochtigheid: 70%
Barometer: 1025 hPa
Bewolking: Bewolking
Zicht: meer dan 10 km
Bewolking: Bewolking 4000 ft
EHEH 161125Z AUTO 20010KT 170V240 9999 OVC040 02/M03 Q1025 BLU NOSIG
EHGR - Gilze-Rijen Rnla, Netherlands
Afstand tot: WZW 70 km
Gewijzigd: 16-01-2021 12:55
Bewolking  
Bewolking  
   Wind: Zuiden 22.2 km/h
Wind: Zuiden 22.2 km/h
Temperatuur: 2°C
Voelt als: -3°C
Dauwpunt: -4°C
Vochtigheid: 65%
Barometer: 1023 hPa
Bewolking: Bewolking
Zicht: meer dan 10 km
Bewolking: Grotendeels bewolkt 9300 ft,
Bewolking 9900 ft
EHGR 161155Z AUTO 19012KT 090V240 9999 BKN093 OVC099 02/M04 Q1023 BLU
EBBL - Kleine-Brogel(Ba, Belgium
Afstand tot: ZZW 71 km
Gewijzigd: 16-01-2021 12:25
Bewolking  
Bewolking  
   Wind: ZZW 14.8 km/h
Wind: ZZW 14.8 km/h
Temperatuur: 2°C
Voelt als: -2°C
Dauwpunt: -4°C
Vochtigheid: 65%
Barometer: 1025 hPa
Bewolking: Bewolking
Zicht: meer dan 10 km
Bewolking: Bewolking 4200 ft
EBBL 161125Z AUTO 20008KT 9999 OVC042/// 02/M04 Q1025 BLU

Script ontwikkeld door  Saratoga-weather.org Aangepast voor de template door  Weerstation Leuven

U vindt ons ook hier:

Het Weer Aktueel

UK Metoffice

WeatherCloud

Weather Underground

Apparatuur in gebruik:

Weerprogramma
Meteobridge

Meteobridge